sensor_id;sensor_type;location;lat;lon;timestamp;P1;durP1;ratioP1;P2;durP2;ratioP2
62362;SDS011;48396;48.426;1.500;2023-05-23T00:00:54;24.30;;;10.00;;
62362;SDS011;48396;48.426;1.500;2023-05-23T00:03:22;23.52;;;10.50;;
62362;SDS011;48396;48.426;1.500;2023-05-23T00:05:51;22.50;;;9.10;;
62362;SDS011;48396;48.426;1.500;2023-05-23T00:08:16;23.00;;;9.65;;
62362;SDS011;48396;48.426;1.500;2023-05-23T00:10:42;20.65;;;8.73;;
62362;SDS011;48396;48.426;1.500;2023-05-23T00:13:09;24.27;;;9.40;;
62362;SDS011;48396;48.426;1.500;2023-05-23T00:15:36;21.13;;;8.55;;
62362;SDS011;48396;48.426;1.500;2023-05-23T00:18:05;22.42;;;9.30;;
62362;SDS011;48396;48.426;1.500;2023-05-23T00:20:33;24.55;;;10.23;;
62362;SDS011;48396;48.426;1.500;2023-05-23T00:23:00;23.50;;;10.27;;
62362;SDS011;48396;48.426;1.500;2023-05-23T00:25:27;25.13;;;9.70;;
62362;SDS011;48396;48.426;1.500;2023-05-23T00:27:58;25.60;;;11.23;;
62362;SDS011;48396;48.426;1.500;2023-05-23T00:30:28;24.48;;;9.82;;
62362;SDS011;48396;48.426;1.500;2023-05-23T00:32:55;22.52;;;9.90;;
62362;SDS011;48396;48.426;1.500;2023-05-23T00:35:21;25.00;;;9.75;;
62362;SDS011;48396;48.426;1.500;2023-05-23T00:37:50;22.98;;;9.68;;
62362;SDS011;48396;48.426;1.500;2023-05-23T00:40:16;23.25;;;10.18;;
62362;SDS011;48396;48.426;1.500;2023-05-23T00:42:42;24.88;;;9.93;;
62362;SDS011;48396;48.426;1.500;2023-05-23T00:45:08;23.02;;;10.45;;
62362;SDS011;48396;48.426;1.500;2023-05-23T00:47:36;24.25;;;9.40;;
62362;SDS011;48396;48.426;1.500;2023-05-23T00:50:03;26.83;;;10.77;;
62362;SDS011;48396;48.426;1.500;2023-05-23T00:52:30;22.55;;;10.25;;
62362;SDS011;48396;48.426;1.500;2023-05-23T00:54:55;24.02;;;10.35;;
62362;SDS011;48396;48.426;1.500;2023-05-23T00:57:21;22.92;;;8.85;;
62362;SDS011;48396;48.426;1.500;2023-05-23T01:02:33;23.25;;;9.50;;
62362;SDS011;48396;48.426;1.500;2023-05-23T01:07:31;23.70;;;9.48;;
62362;SDS011;48396;48.426;1.500;2023-05-23T01:09:56;22.75;;;9.32;;
62362;SDS011;48396;48.426;1.500;2023-05-23T01:12:24;25.05;;;9.27;;
62362;SDS011;48396;48.426;1.500;2023-05-23T01:15:00;23.83;;;8.75;;
62362;SDS011;48396;48.426;1.500;2023-05-23T01:20:20;22.27;;;9.02;;
62362;SDS011;48396;48.426;1.500;2023-05-23T01:25:27;24.02;;;9.15;;
62362;SDS011;48396;48.426;1.500;2023-05-23T01:28:11;23.38;;;9.18;;
62362;SDS011;48396;48.426;1.500;2023-05-23T01:30:44;22.88;;;9.43;;
62362;SDS011;48396;48.426;1.500;2023-05-23T01:33:12;22.58;;;9.82;;
62362;SDS011;48396;48.426;1.500;2023-05-23T01:35:40;23.85;;;9.45;;
62362;SDS011;48396;48.426;1.500;2023-05-23T01:38:07;22.25;;;8.75;;
62362;SDS011;48396;48.426;1.500;2023-05-23T01:40:33;21.90;;;8.70;;
62362;SDS011;48396;48.426;1.500;2023-05-23T01:43:00;23.60;;;9.48;;
62362;SDS011;48396;48.426;1.500;2023-05-23T01:45:26;21.65;;;9.65;;
62362;SDS011;48396;48.426;1.500;2023-05-23T01:47:53;20.15;;;8.32;;
62362;SDS011;48396;48.426;1.500;2023-05-23T01:50:19;24.17;;;10.20;;
62362;SDS011;48396;48.426;1.500;2023-05-23T01:52:46;20.25;;;9.20;;
62362;SDS011;48396;48.426;1.500;2023-05-23T01:55:13;23.42;;;9.73;;
62362;SDS011;48396;48.426;1.500;2023-05-23T01:57:42;22.85;;;8.75;;
62362;SDS011;48396;48.426;1.500;2023-05-23T02:00:10;21.77;;;8.82;;
62362;SDS011;48396;48.426;1.500;2023-05-23T02:02:36;21.73;;;9.30;;
62362;SDS011;48396;48.426;1.500;2023-05-23T02:05:01;21.30;;;8.80;;
62362;SDS011;48396;48.426;1.500;2023-05-23T02:07:27;20.60;;;9.00;;
62362;SDS011;48396;48.426;1.500;2023-05-23T02:09:53;18.27;;;8.52;;
62362;SDS011;48396;48.426;1.500;2023-05-23T02:12:18;19.67;;;8.10;;
62362;SDS011;48396;48.426;1.500;2023-05-23T02:14:44;20.42;;;8.48;;
62362;SDS011;48396;48.426;1.500;2023-05-23T02:17:11;23.10;;;9.90;;
62362;SDS011;48396;48.426;1.500;2023-05-23T02:19:38;22.13;;;8.95;;
62362;SDS011;48396;48.426;1.500;2023-05-23T02:22:04;22.10;;;9.38;;
62362;SDS011;48396;48.426;1.500;2023-05-23T02:24:30;21.67;;;9.60;;
62362;SDS011;48396;48.426;1.500;2023-05-23T02:27:14;20.48;;;8.95;;
62362;SDS011;48396;48.426;1.500;2023-05-23T02:29:40;24.40;;;9.65;;
62362;SDS011;48396;48.426;1.500;2023-05-23T02:32:06;21.73;;;9.75;;
62362;SDS011;48396;48.426;1.500;2023-05-23T02:34:31;20.10;;;9.25;;
62362;SDS011;48396;48.426;1.500;2023-05-23T02:36:57;21.80;;;9.13;;
62362;SDS011;48396;48.426;1.500;2023-05-23T02:39:22;18.73;;;8.80;;
62362;SDS011;48396;48.426;1.500;2023-05-23T02:41:48;20.67;;;8.50;;
62362;SDS011;48396;48.426;1.500;2023-05-23T02:44:13;19.60;;;8.95;;
62362;SDS011;48396;48.426;1.500;2023-05-23T02:46:39;19.25;;;8.30;;
62362;SDS011;48396;48.426;1.500;2023-05-23T02:49:05;18.58;;;8.55;;
62362;SDS011;48396;48.426;1.500;2023-05-23T02:51:30;22.20;;;9.45;;
62362;SDS011;48396;48.426;1.500;2023-05-23T02:53:56;16.80;;;7.47;;
62362;SDS011;48396;48.426;1.500;2023-05-23T02:56:22;19.40;;;8.68;;
62362;SDS011;48396;48.426;1.500;2023-05-23T02:58:47;22.48;;;9.55;;
62362;SDS011;48396;48.426;1.500;2023-05-23T03:01:13;19.67;;;8.88;;
62362;SDS011;48396;48.426;1.500;2023-05-23T03:03:38;20.02;;;8.90;;
62362;SDS011;48396;48.426;1.500;2023-05-23T03:06:05;19.45;;;8.63;;
62362;SDS011;48396;48.426;1.500;2023-05-23T03:08:31;20.05;;;8.38;;
62362;SDS011;48396;48.426;1.500;2023-05-23T03:10:57;21.02;;;8.32;;
62362;SDS011;48396;48.426;1.500;2023-05-23T03:13:22;19.88;;;9.02;;
62362;SDS011;48396;48.426;1.500;2023-05-23T03:15:48;20.73;;;8.50;;
62362;SDS011;48396;48.426;1.500;2023-05-23T03:18:13;18.52;;;8.55;;
62362;SDS011;48396;48.426;1.500;2023-05-23T03:20:40;20.00;;;8.23;;
62362;SDS011;48396;48.426;1.500;2023-05-23T03:23:06;17.95;;;7.75;;
62362;SDS011;48396;48.426;1.500;2023-05-23T03:25:31;22.92;;;9.23;;
62362;SDS011;48396;48.426;1.500;2023-05-23T03:27:57;19.08;;;8.05;;
62362;SDS011;48396;48.426;1.500;2023-05-23T03:30:22;20.55;;;8.48;;
62362;SDS011;48396;48.426;1.500;2023-05-23T03:32:48;19.77;;;9.40;;
62362;SDS011;48396;48.426;1.500;2023-05-23T03:35:13;21.20;;;9.45;;
62362;SDS011;48396;48.426;1.500;2023-05-23T03:37:39;19.88;;;9.20;;
62362;SDS011;48396;48.426;1.500;2023-05-23T03:40:05;20.55;;;8.45;;
62362;SDS011;48396;48.426;1.500;2023-05-23T03:42:32;24.15;;;10.82;;
62362;SDS011;48396;48.426;1.500;2023-05-23T03:44:57;18.67;;;8.73;;
62362;SDS011;48396;48.426;1.500;2023-05-23T03:47:23;21.48;;;9.60;;
62362;SDS011;48396;48.426;1.500;2023-05-23T03:49:49;19.25;;;8.88;;
62362;SDS011;48396;48.426;1.500;2023-05-23T03:52:14;20.75;;;9.70;;
62362;SDS011;48396;48.426;1.500;2023-05-23T03:54:40;23.50;;;11.20;;
62362;SDS011;48396;48.426;1.500;2023-05-23T03:57:06;19.48;;;9.77;;
62362;SDS011;48396;48.426;1.500;2023-05-23T03:59:32;22.30;;;10.77;;
62362;SDS011;48396;48.426;1.500;2023-05-23T04:01:57;22.20;;;10.52;;
62362;SDS011;48396;48.426;1.500;2023-05-23T04:04:24;23.33;;;11.30;;
62362;SDS011;48396;48.426;1.500;2023-05-23T04:06:51;22.02;;;10.98;;
62362;SDS011;48396;48.426;1.500;2023-05-23T04:09:16;23.52;;;11.32;;
62362;SDS011;48396;48.426;1.500;2023-05-23T04:11:42;22.00;;;10.40;;
62362;SDS011;48396;48.426;1.500;2023-05-23T04:14:08;24.30;;;11.23;;
62362;SDS011;48396;48.426;1.500;2023-05-23T04:16:36;24.10;;;11.32;;
62362;SDS011;48396;48.426;1.500;2023-05-23T04:19:02;22.52;;;11.38;;
62362;SDS011;48396;48.426;1.500;2023-05-23T04:21:28;22.65;;;11.50;;
62362;SDS011;48396;48.426;1.500;2023-05-23T04:23:54;25.67;;;13.27;;
62362;SDS011;48396;48.426;1.500;2023-05-23T04:26:20;25.52;;;12.02;;
62362;SDS011;48396;48.426;1.500;2023-05-23T04:28:45;25.15;;;12.23;;
62362;SDS011;48396;48.426;1.500;2023-05-23T04:31:12;23.85;;;11.50;;
62362;SDS011;48396;48.426;1.500;2023-05-23T04:33:38;24.15;;;12.55;;
62362;SDS011;48396;48.426;1.500;2023-05-23T04:36:04;24.25;;;12.80;;
62362;SDS011;48396;48.426;1.500;2023-05-23T04:38:33;24.00;;;13.43;;
62362;SDS011;48396;48.426;1.500;2023-05-23T04:40:59;25.05;;;12.02;;
62362;SDS011;48396;48.426;1.500;2023-05-23T04:43:24;26.60;;;14.15;;
62362;SDS011;48396;48.426;1.500;2023-05-23T04:45:53;26.95;;;13.43;;
62362;SDS011;48396;48.426;1.500;2023-05-23T04:48:18;25.35;;;13.38;;
62362;SDS011;48396;48.426;1.500;2023-05-23T04:50:45;27.25;;;13.48;;
62362;SDS011;48396;48.426;1.500;2023-05-23T04:53:12;27.80;;;14.27;;
62362;SDS011;48396;48.426;1.500;2023-05-23T04:55:38;26.65;;;12.82;;
62362;SDS011;48396;48.426;1.500;2023-05-23T04:58:03;26.50;;;14.82;;
62362;SDS011;48396;48.426;1.500;2023-05-23T05:00:29;30.13;;;14.75;;
62362;SDS011;48396;48.426;1.500;2023-05-23T05:02:55;24.83;;;13.90;;
62362;SDS011;48396;48.426;1.500;2023-05-23T05:05:20;27.23;;;14.15;;
62362;SDS011;48396;48.426;1.500;2023-05-23T05:07:46;26.15;;;13.77;;
62362;SDS011;48396;48.426;1.500;2023-05-23T05:10:11;28.77;;;14.82;;
62362;SDS011;48396;48.426;1.500;2023-05-23T05:12:41;29.17;;;14.10;;
62362;SDS011;48396;48.426;1.500;2023-05-23T05:15:11;29.90;;;16.02;;
62362;SDS011;48396;48.426;1.500;2023-05-23T05:17:37;32.63;;;16.75;;
62362;SDS011;48396;48.426;1.500;2023-05-23T05:20:04;30.05;;;16.13;;
62362;SDS011;48396;48.426;1.500;2023-05-23T05:22:32;30.27;;;14.32;;
62362;SDS011;48396;48.426;1.500;2023-05-23T05:24:59;29.38;;;12.60;;
62362;SDS011;48396;48.426;1.500;2023-05-23T05:27:26;28.17;;;13.82;;
62362;SDS011;48396;48.426;1.500;2023-05-23T05:29:51;26.10;;;13.20;;
62362;SDS011;48396;48.426;1.500;2023-05-23T05:32:17;23.92;;;12.88;;
62362;SDS011;48396;48.426;1.500;2023-05-23T05:34:43;25.77;;;13.52;;
62362;SDS011;48396;48.426;1.500;2023-05-23T05:37:08;26.30;;;12.68;;
62362;SDS011;48396;48.426;1.500;2023-05-23T05:39:38;25.08;;;12.63;;
62362;SDS011;48396;48.426;1.500;2023-05-23T05:42:03;26.00;;;12.88;;
62362;SDS011;48396;48.426;1.500;2023-05-23T05:44:29;26.90;;;12.90;;
62362;SDS011;48396;48.426;1.500;2023-05-23T05:46:55;24.33;;;11.90;;
62362;SDS011;48396;48.426;1.500;2023-05-23T05:49:20;25.83;;;12.32;;
62362;SDS011;48396;48.426;1.500;2023-05-23T05:51:46;26.85;;;12.85;;
62362;SDS011;48396;48.426;1.500;2023-05-23T05:54:12;25.35;;;12.07;;
62362;SDS011;48396;48.426;1.500;2023-05-23T05:56:37;25.40;;;11.77;;
62362;SDS011;48396;48.426;1.500;2023-05-23T05:59:03;27.33;;;12.70;;
62362;SDS011;48396;48.426;1.500;2023-05-23T06:01:28;24.08;;;11.07;;
62362;SDS011;48396;48.426;1.500;2023-05-23T06:03:54;24.83;;;11.85;;
62362;SDS011;48396;48.426;1.500;2023-05-23T06:06:20;23.40;;;11.45;;
62362;SDS011;48396;48.426;1.500;2023-05-23T06:08:46;26.33;;;11.73;;
62362;SDS011;48396;48.426;1.500;2023-05-23T06:11:12;23.83;;;11.63;;
62362;SDS011;48396;48.426;1.500;2023-05-23T06:13:37;26.08;;;10.77;;
62362;SDS011;48396;48.426;1.500;2023-05-23T06:16:03;23.10;;;10.55;;
62362;SDS011;48396;48.426;1.500;2023-05-23T06:18:29;23.02;;;10.73;;
62362;SDS011;48396;48.426;1.500;2023-05-23T06:20:55;23.55;;;10.25;;
62362;SDS011;48396;48.426;1.500;2023-05-23T06:23:20;21.17;;;9.68;;
62362;SDS011;48396;48.426;1.500;2023-05-23T06:25:46;20.38;;;9.68;;
62362;SDS011;48396;48.426;1.500;2023-05-23T06:28:12;21.63;;;9.50;;
62362;SDS011;48396;48.426;1.500;2023-05-23T06:30:37;22.52;;;9.27;;
62362;SDS011;48396;48.426;1.500;2023-05-23T06:33:03;23.60;;;10.93;;
62362;SDS011;48396;48.426;1.500;2023-05-23T06:35:30;21.92;;;10.27;;
62362;SDS011;48396;48.426;1.500;2023-05-23T06:37:55;23.23;;;10.40;;
62362;SDS011;48396;48.426;1.500;2023-05-23T06:40:21;22.15;;;10.50;;
62362;SDS011;48396;48.426;1.500;2023-05-23T06:42:46;21.80;;;9.38;;
62362;SDS011;48396;48.426;1.500;2023-05-23T06:45:12;21.67;;;9.02;;
62362;SDS011;48396;48.426;1.500;2023-05-23T06:47:38;20.27;;;8.63;;
62362;SDS011;48396;48.426;1.500;2023-05-23T06:50:07;21.25;;;9.63;;
62362;SDS011;48396;48.426;1.500;2023-05-23T06:52:33;22.05;;;8.65;;
62362;SDS011;48396;48.426;1.500;2023-05-23T06:57:44;17.55;;;7.85;;
62362;SDS011;48396;48.426;1.500;2023-05-23T07:00:11;19.52;;;7.88;;
62362;SDS011;48396;48.426;1.500;2023-05-23T07:02:37;14.75;;;6.38;;
62362;SDS011;48396;48.426;1.500;2023-05-23T07:05:03;17.15;;;7.40;;
62362;SDS011;48396;48.426;1.500;2023-05-23T07:07:29;17.88;;;7.13;;
62362;SDS011;48396;48.426;1.500;2023-05-23T07:09:55;17.80;;;7.90;;
62362;SDS011;48396;48.426;1.500;2023-05-23T07:12:20;17.23;;;7.22;;
62362;SDS011;48396;48.426;1.500;2023-05-23T07:14:46;19.42;;;7.32;;
62362;SDS011;48396;48.426;1.500;2023-05-23T07:17:11;16.52;;;7.30;;
62362;SDS011;48396;48.426;1.500;2023-05-23T07:19:37;17.25;;;7.07;;
62362;SDS011;48396;48.426;1.500;2023-05-23T07:22:02;16.98;;;6.85;;
62362;SDS011;48396;48.426;1.500;2023-05-23T07:24:28;17.35;;;7.57;;
62362;SDS011;48396;48.426;1.500;2023-05-23T07:26:54;19.88;;;8.35;;
62362;SDS011;48396;48.426;1.500;2023-05-23T07:29:19;15.55;;;6.57;;
62362;SDS011;48396;48.426;1.500;2023-05-23T07:31:45;15.95;;;6.65;;
62362;SDS011;48396;48.426;1.500;2023-05-23T07:34:10;15.88;;;6.75;;
62362;SDS011;48396;48.426;1.500;2023-05-23T07:36:36;17.63;;;8.00;;
62362;SDS011;48396;48.426;1.500;2023-05-23T07:39:04;16.40;;;6.72;;
62362;SDS011;48396;48.426;1.500;2023-05-23T07:41:31;15.52;;;6.53;;
62362;SDS011;48396;48.426;1.500;2023-05-23T07:43:56;17.05;;;7.80;;
62362;SDS011;48396;48.426;1.500;2023-05-23T07:46:22;18.23;;;7.70;;
62362;SDS011;48396;48.426;1.500;2023-05-23T07:48:47;18.52;;;8.45;;
62362;SDS011;48396;48.426;1.500;2023-05-23T07:51:13;16.48;;;6.88;;
62362;SDS011;48396;48.426;1.500;2023-05-23T07:53:39;17.98;;;7.18;;
62362;SDS011;48396;48.426;1.500;2023-05-23T07:56:05;18.05;;;7.80;;
62362;SDS011;48396;48.426;1.500;2023-05-23T07:58:31;17.58;;;7.32;;
62362;SDS011;48396;48.426;1.500;2023-05-23T08:00:57;18.40;;;7.78;;
62362;SDS011;48396;48.426;1.500;2023-05-23T08:03:23;15.45;;;6.57;;
62362;SDS011;48396;48.426;1.500;2023-05-23T08:05:49;17.23;;;7.78;;
62362;SDS011;48396;48.426;1.500;2023-05-23T08:08:15;17.67;;;7.53;;
62362;SDS011;48396;48.426;1.500;2023-05-23T08:10:40;16.83;;;7.15;;
62362;SDS011;48396;48.426;1.500;2023-05-23T08:13:08;16.67;;;6.90;;
62362;SDS011;48396;48.426;1.500;2023-05-23T08:15:34;16.52;;;6.60;;
62362;SDS011;48396;48.426;1.500;2023-05-23T08:17:59;19.75;;;8.40;;
62362;SDS011;48396;48.426;1.500;2023-05-23T08:20:25;18.40;;;7.32;;
62362;SDS011;48396;48.426;1.500;2023-05-23T08:22:58;19.20;;;7.90;;
62362;SDS011;48396;48.426;1.500;2023-05-23T08:25:24;19.25;;;7.50;;
62362;SDS011;48396;48.426;1.500;2023-05-23T08:27:54;19.42;;;7.40;;
62362;SDS011;48396;48.426;1.500;2023-05-23T08:30:21;18.50;;;6.60;;
62362;SDS011;48396;48.426;1.500;2023-05-23T08:32:47;20.80;;;8.27;;
62362;SDS011;48396;48.426;1.500;2023-05-23T08:35:12;19.33;;;7.25;;
62362;SDS011;48396;48.426;1.500;2023-05-23T08:37:38;21.42;;;8.15;;
62362;SDS011;48396;48.426;1.500;2023-05-23T08:40:05;17.70;;;7.57;;
62362;SDS011;48396;48.426;1.500;2023-05-23T08:42:35;16.23;;;8.02;;
62362;SDS011;48396;48.426;1.500;2023-05-23T08:45:01;18.30;;;8.18;;
62362;SDS011;48396;48.426;1.500;2023-05-23T08:47:26;17.48;;;7.30;;
62362;SDS011;48396;48.426;1.500;2023-05-23T08:49:55;20.00;;;8.00;;
62362;SDS011;48396;48.426;1.500;2023-05-23T08:52:45;17.70;;;7.75;;
62362;SDS011;48396;48.426;1.500;2023-05-23T08:55:19;18.15;;;8.25;;
62362;SDS011;48396;48.426;1.500;2023-05-23T08:57:51;19.85;;;8.40;;
62362;SDS011;48396;48.426;1.500;2023-05-23T09:00:17;18.33;;;8.30;;
62362;SDS011;48396;48.426;1.500;2023-05-23T09:02:43;17.55;;;7.93;;
62362;SDS011;48396;48.426;1.500;2023-05-23T09:05:10;16.33;;;6.97;;
62362;SDS011;48396;48.426;1.500;2023-05-23T09:07:36;18.60;;;8.35;;
62362;SDS011;48396;48.426;1.500;2023-05-23T09:12:47;17.17;;;7.80;;
62362;SDS011;48396;48.426;1.500;2023-05-23T09:15:13;16.33;;;7.05;;
62362;SDS011;48396;48.426;1.500;2023-05-23T09:17:39;18.88;;;7.63;;
62362;SDS011;48396;48.426;1.500;2023-05-23T09:20:11;16.00;;;6.32;;
62362;SDS011;48396;48.426;1.500;2023-05-23T09:22:38;16.25;;;6.88;;
62362;SDS011;48396;48.426;1.500;2023-05-23T09:25:04;17.85;;;7.32;;
62362;SDS011;48396;48.426;1.500;2023-05-23T09:27:30;16.70;;;7.13;;
62362;SDS011;48396;48.426;1.500;2023-05-23T09:29:56;19.75;;;7.97;;
62362;SDS011;48396;48.426;1.500;2023-05-23T09:32:22;14.55;;;6.38;;
62362;SDS011;48396;48.426;1.500;2023-05-23T09:34:53;15.50;;;6.90;;
62362;SDS011;48396;48.426;1.500;2023-05-23T09:37:20;15.75;;;6.88;;
62362;SDS011;48396;48.426;1.500;2023-05-23T09:39:48;15.20;;;6.72;;
62362;SDS011;48396;48.426;1.500;2023-05-23T09:42:19;15.70;;;6.43;;
62362;SDS011;48396;48.426;1.500;2023-05-23T09:44:46;15.48;;;6.72;;
62362;SDS011;48396;48.426;1.500;2023-05-23T09:47:12;17.38;;;6.68;;
62362;SDS011;48396;48.426;1.500;2023-05-23T09:49:39;18.40;;;6.57;;
62362;SDS011;48396;48.426;1.500;2023-05-23T09:52:05;17.15;;;6.55;;
62362;SDS011;48396;48.426;1.500;2023-05-23T09:54:31;16.92;;;6.40;;
62362;SDS011;48396;48.426;1.500;2023-05-23T09:56:57;13.30;;;5.88;;
62362;SDS011;48396;48.426;1.500;2023-05-23T09:59:29;17.98;;;6.85;;
62362;SDS011;48396;48.426;1.500;2023-05-23T10:01:56;14.15;;;6.15;;
62362;SDS011;48396;48.426;1.500;2023-05-23T10:04:26;15.27;;;6.40;;
62362;SDS011;48396;48.426;1.500;2023-05-23T10:07:00;18.23;;;7.38;;
62362;SDS011;48396;48.426;1.500;2023-05-23T10:09:46;19.58;;;8.15;;
62362;SDS011;48396;48.426;1.500;2023-05-23T10:14:58;17.50;;;7.30;;
62362;SDS011;48396;48.426;1.500;2023-05-23T10:20:10;16.63;;;7.20;;
62362;SDS011;48396;48.426;1.500;2023-05-23T10:22:39;19.67;;;7.85;;
62362;SDS011;48396;48.426;1.500;2023-05-23T10:25:07;19.30;;;8.20;;
62362;SDS011;48396;48.426;1.500;2023-05-23T10:27:34;18.77;;;7.50;;
62362;SDS011;48396;48.426;1.500;2023-05-23T10:30:04;16.13;;;6.68;;
62362;SDS011;48396;48.426;1.500;2023-05-23T10:32:31;18.33;;;8.07;;
62362;SDS011;48396;48.426;1.500;2023-05-23T10:34:58;18.40;;;7.50;;
62362;SDS011;48396;48.426;1.500;2023-05-23T10:45:58;18.20;;;7.55;;
62362;SDS011;48396;48.426;1.500;2023-05-23T10:51:03;16.05;;;6.85;;
62362;SDS011;48396;48.426;1.500;2023-05-23T10:53:31;21.63;;;7.95;;
62362;SDS011;48396;48.426;1.500;2023-05-23T10:56:00;18.00;;;8.07;;
62362;SDS011;48396;48.426;1.500;2023-05-23T10:58:28;18.50;;;7.75;;
62362;SDS011;48396;48.426;1.500;2023-05-23T11:01:15;21.38;;;8.63;;
62362;SDS011;48396;48.426;1.500;2023-05-23T11:14:19;17.08;;;7.20;;
62362;SDS011;48396;48.426;1.500;2023-05-23T11:22:32;15.98;;;7.07;;
62362;SDS011;48396;48.426;1.500;2023-05-23T11:24:59;16.17;;;7.18;;
62362;SDS011;48396;48.426;1.500;2023-05-23T11:27:32;18.42;;;7.22;;
62362;SDS011;48396;48.426;1.500;2023-05-23T11:30:01;18.58;;;7.25;;
62362;SDS011;48396;48.426;1.500;2023-05-23T11:32:33;17.95;;;7.38;;
62362;SDS011;48396;48.426;1.500;2023-05-23T11:35:03;16.17;;;6.95;;
62362;SDS011;48396;48.426;1.500;2023-05-23T11:37:30;17.13;;;7.47;;
62362;SDS011;48396;48.426;1.500;2023-05-23T11:39:56;15.25;;;6.68;;
62362;SDS011;48396;48.426;1.500;2023-05-23T11:42:22;17.00;;;7.38;;
62362;SDS011;48396;48.426;1.500;2023-05-23T11:44:49;18.50;;;6.60;;
62362;SDS011;48396;48.426;1.500;2023-05-23T11:47:15;14.38;;;6.10;;
62362;SDS011;48396;48.426;1.500;2023-05-23T11:49:42;15.52;;;6.72;;
62362;SDS011;48396;48.426;1.500;2023-05-23T11:52:10;15.85;;;6.43;;
62362;SDS011;48396;48.426;1.500;2023-05-23T11:54:36;17.42;;;7.38;;
62362;SDS011;48396;48.426;1.500;2023-05-23T11:57:05;19.15;;;7.55;;
62362;SDS011;48396;48.426;1.500;2023-05-23T11:59:30;17.08;;;6.78;;
62362;SDS011;48396;48.426;1.500;2023-05-23T12:01:57;14.98;;;6.40;;
62362;SDS011;48396;48.426;1.500;2023-05-23T12:04:24;18.75;;;7.65;;
62362;SDS011;48396;48.426;1.500;2023-05-23T12:06:50;14.40;;;6.72;;
62362;SDS011;48396;48.426;1.500;2023-05-23T12:09:16;15.82;;;6.85;;
62362;SDS011;48396;48.426;1.500;2023-05-23T12:11:42;16.88;;;6.50;;
62362;SDS011;48396;48.426;1.500;2023-05-23T12:14:13;18.30;;;7.93;;
62362;SDS011;48396;48.426;1.500;2023-05-23T12:16:44;17.63;;;8.13;;
62362;SDS011;48396;48.426;1.500;2023-05-23T12:19:11;17.88;;;7.43;;
62362;SDS011;48396;48.426;1.500;2023-05-23T12:21:46;18.33;;;7.20;;
62362;SDS011;48396;48.426;1.500;2023-05-23T12:24:13;15.25;;;6.93;;
62362;SDS011;48396;48.426;1.500;2023-05-23T12:26:53;15.43;;;7.03;;
62362;SDS011;48396;48.426;1.500;2023-05-23T12:29:28;18.88;;;7.93;;
62362;SDS011;48396;48.426;1.500;2023-05-23T12:31:58;13.88;;;6.70;;
62362;SDS011;48396;48.426;1.500;2023-05-23T12:34:28;18.80;;;8.13;;
62362;SDS011;48396;48.426;1.500;2023-05-23T12:36:57;18.40;;;8.13;;
62362;SDS011;48396;48.426;1.500;2023-05-23T12:39:24;18.50;;;8.30;;
62362;SDS011;48396;48.426;1.500;2023-05-23T12:41:51;18.42;;;7.57;;
62362;SDS011;48396;48.426;1.500;2023-05-23T12:44:17;18.13;;;7.85;;
62362;SDS011;48396;48.426;1.500;2023-05-23T12:46:42;16.23;;;7.25;;
62362;SDS011;48396;48.426;1.500;2023-05-23T12:49:08;16.33;;;7.20;;
62362;SDS011;48396;48.426;1.500;2023-05-23T12:51:34;17.52;;;7.47;;
62362;SDS011;48396;48.426;1.500;2023-05-23T12:54:00;16.75;;;6.90;;
62362;SDS011;48396;48.426;1.500;2023-05-23T12:56:26;18.17;;;8.02;;
62362;SDS011;48396;48.426;1.500;2023-05-23T12:58:51;17.20;;;7.43;;
62362;SDS011;48396;48.426;1.500;2023-05-23T13:01:20;16.10;;;7.03;;
62362;SDS011;48396;48.426;1.500;2023-05-23T13:03:46;18.98;;;7.05;;
62362;SDS011;48396;48.426;1.500;2023-05-23T13:06:12;17.67;;;7.50;;
62362;SDS011;48396;48.426;1.500;2023-05-23T13:08:57;18.30;;;8.32;;
62362;SDS011;48396;48.426;1.500;2023-05-23T13:11:23;16.50;;;7.63;;
62362;SDS011;48396;48.426;1.500;2023-05-23T13:13:49;17.48;;;7.97;;
62362;SDS011;48396;48.426;1.500;2023-05-23T13:16:15;18.40;;;7.70;;
62362;SDS011;48396;48.426;1.500;2023-05-23T13:18:41;17.88;;;7.18;;
62362;SDS011;48396;48.426;1.500;2023-05-23T13:21:07;17.55;;;7.20;;
62362;SDS011;48396;48.426;1.500;2023-05-23T13:23:33;17.95;;;7.75;;
62362;SDS011;48396;48.426;1.500;2023-05-23T13:26:00;16.25;;;7.35;;
62362;SDS011;48396;48.426;1.500;2023-05-23T13:28:26;16.73;;;7.78;;
62362;SDS011;48396;48.426;1.500;2023-05-23T13:30:51;19.77;;;8.23;;
62362;SDS011;48396;48.426;1.500;2023-05-23T13:33:17;18.33;;;7.55;;
62362;SDS011;48396;48.426;1.500;2023-05-23T13:35:42;17.88;;;7.05;;
62362;SDS011;48396;48.426;1.500;2023-05-23T13:38:08;15.77;;;6.78;;
62362;SDS011;48396;48.426;1.500;2023-05-23T13:40:34;16.90;;;7.32;;
62362;SDS011;48396;48.426;1.500;2023-05-23T13:43:00;15.23;;;6.43;;
62362;SDS011;48396;48.426;1.500;2023-05-23T13:45:25;13.82;;;5.97;;
62362;SDS011;48396;48.426;1.500;2023-05-23T13:47:51;17.20;;;6.93;;
62362;SDS011;48396;48.426;1.500;2023-05-23T13:50:17;15.38;;;6.75;;
62362;SDS011;48396;48.426;1.500;2023-05-23T13:52:42;14.80;;;6.53;;
62362;SDS011;48396;48.426;1.500;2023-05-23T13:55:09;16.25;;;6.82;;
62362;SDS011;48396;48.426;1.500;2023-05-23T13:57:34;13.85;;;6.05;;
62362;SDS011;48396;48.426;1.500;2023-05-23T14:00:00;18.35;;;7.00;;
62362;SDS011;48396;48.426;1.500;2023-05-23T14:02:27;13.98;;;6.00;;
62362;SDS011;48396;48.426;1.500;2023-05-23T14:04:55;16.02;;;7.35;;
62362;SDS011;48396;48.426;1.500;2023-05-23T14:07:21;12.35;;;5.43;;
62362;SDS011;48396;48.426;1.500;2023-05-23T14:09:47;12.88;;;5.70;;
62362;SDS011;48396;48.426;1.500;2023-05-23T14:12:12;14.32;;;6.32;;
62362;SDS011;48396;48.426;1.500;2023-05-23T14:14:38;14.30;;;5.95;;
62362;SDS011;48396;48.426;1.500;2023-05-23T14:17:03;13.30;;;5.70;;
62362;SDS011;48396;48.426;1.500;2023-05-23T14:19:29;14.18;;;5.82;;
62362;SDS011;48396;48.426;1.500;2023-05-23T14:21:55;11.07;;;5.30;;
62362;SDS011;48396;48.426;1.500;2023-05-23T14:24:20;13.00;;;5.50;;
62362;SDS011;48396;48.426;1.500;2023-05-23T14:26:46;13.57;;;5.82;;
62362;SDS011;48396;48.426;1.500;2023-05-23T14:29:12;14.68;;;5.43;;
62362;SDS011;48396;48.426;1.500;2023-05-23T14:31:37;12.80;;;5.45;;
62362;SDS011;48396;48.426;1.500;2023-05-23T14:34:03;12.15;;;5.10;;
62362;SDS011;48396;48.426;1.500;2023-05-23T14:36:29;15.35;;;5.78;;
62362;SDS011;48396;48.426;1.500;2023-05-23T14:38:55;12.18;;;5.40;;
62362;SDS011;48396;48.426;1.500;2023-05-23T14:41:21;11.45;;;4.95;;
62362;SDS011;48396;48.426;1.500;2023-05-23T14:43:46;14.00;;;5.60;;
62362;SDS011;48396;48.426;1.500;2023-05-23T14:46:12;13.88;;;5.25;;
62362;SDS011;48396;48.426;1.500;2023-05-23T14:48:39;12.38;;;4.60;;
62362;SDS011;48396;48.426;1.500;2023-05-23T14:51:05;11.48;;;5.15;;
62362;SDS011;48396;48.426;1.500;2023-05-23T14:53:31;10.50;;;4.90;;
62362;SDS011;48396;48.426;1.500;2023-05-23T14:55:56;9.43;;;4.57;;
62362;SDS011;48396;48.426;1.500;2023-05-23T14:58:22;10.77;;;4.30;;
62362;SDS011;48396;48.426;1.500;2023-05-23T15:00:49;11.07;;;4.57;;
62362;SDS011;48396;48.426;1.500;2023-05-23T15:03:15;12.27;;;4.32;;
62362;SDS011;48396;48.426;1.500;2023-05-23T15:05:41;8.82;;;4.70;;
62362;SDS011;48396;48.426;1.500;2023-05-23T15:08:06;11.05;;;4.90;;
62362;SDS011;48396;48.426;1.500;2023-05-23T15:10:32;12.02;;;4.70;;
62362;SDS011;48396;48.426;1.500;2023-05-23T15:12:58;9.88;;;4.55;;
62362;SDS011;48396;48.426;1.500;2023-05-23T15:15:23;12.30;;;4.43;;
62362;SDS011;48396;48.426;1.500;2023-05-23T15:17:50;15.32;;;5.22;;